Vanquish — PHCU — position and weather

sailwx.info

Track history (hours):
 
Tides and Currents Weather Stations Pressure Air Temp Water Temp Dewpoint Dewpoint Depression Visibility Wind Speed Wind Dir Waves Ship Positions

Vanquish

Last reported at 2014-Jul-25 06:33 UTC. Time now 2014-Jul-25 06:51 UTC.
Position N 51°30' W 002°42'.

MMSI: 246138952.

Date/timePositionNaut miles runAvg speedWind from/ knotsBaromVisibWave heightAir tempDewpointWater temp
2014-Jul-25 06:33N 51°30' W 002°42'0 0.0
2014-Jul-25 05:33N 51°30' W 002°42'0 0.0
2014-Jul-25 04:34N 51°30' W 002°42'0 0.0
2014-Jul-25 03:31N 51°30' W 002°42'0 0.0
2014-Jul-25 02:34N 51°30' W 002°42'0 0.0
2014-Jul-25 01:34N 51°30' W 002°42'0 0.0
2014-Jul-25 00:31N 51°30' W 002°42'0 0.0
2014-Jul-24 23:33N 51°30' W 002°42'0 0.0
2014-Jul-24 22:33N 51°30' W 002°42'0 0.0
2014-Jul-24 21:33N 51°30' W 002°42'0 0.0
2014-Jul-24 20:34N 51°30' W 002°42'0 0.0
2014-Jul-24 19:33N 51°30' W 002°42'0 0.0
2014-Jul-24 18:34N 51°30' W 002°42'0 0.4
2014-Jul-24 17:34N 51°30' W 002°43'4 4.2
2014-Jul-24 16:34N 51°29' W 002°49'1514.6
2014-Jul-24 15:34N 51°22' W 003°09'10 9.5
2014-Jul-24 14:33N 51°21' W 003°25'1 1.2
2014-Jul-24 13:33N 51°20' W 003°26'91 9.0
2014-Jul-24 03:32N 52°08' W 005°31'1212.2
2014-Jul-24 02:33N 52°20' W 005°32'1513.5
2014-Jul-24 01:28N 52°34' W 005°33'5713.9
2014-Jul-23 21:23N 53°30' W 005°47'1112.8
2014-Jul-23 20:33N 53°41' W 005°53'1312.8
2014-Jul-23 19:33N 53°53' W 005°58'1111.1
2014-Jul-23 18:33N 54°02' W 006°08'3 0.1
2014-Jul-22 20:31N 54°04' W 006°12'8 7.6
2014-Jul-22 19:28N 53°59' W 006°02'4 4.4
2014-Jul-22 18:33N 53°55' W 005°59'4213.9
2014-Jul-22 15:32N 53°14' W 005°39'13910.6
2014-Jul-22 02:27N 51°21' W 003°27'1011.1
2014-Jul-22 01:33N 51°23' W 003°11'1211.9
2014-Jul-22 00:33N 51°27' W 002°53'7 7.1
2014-Jul-21 23:33N 51°30' W 002°43'0 0.3
2014-Jul-21 22:32N 51°30' W 002°42'0 0.0
2014-Jul-21 21:32N 51°30' W 002°42'0 0.0
2014-Jul-21 20:32N 51°30' W 002°42'0 0.0
2014-Jul-21 20:17N 51°30' W 002°42'0 0.0
2014-Jul-21 19:32N 51°30' W 002°42'0 0.0
2014-Jul-21 18:32N 51°30' W 002°42'0 0.0
2014-Jul-21 17:32N 51°30' W 002°42'0 0.0
2014-Jul-21 16:32N 51°30' W 002°42'0 0.0
2014-Jul-21 15:32N 51°30' W 002°42'0 0.0
2014-Jul-21 14:32N 51°30' W 002°42'0 0.0
2014-Jul-21 13:32N 51°30' W 002°42'0 0.0
2014-Jul-21 12:32N 51°30' W 002°42'0 0.0
2014-Jul-21 11:32N 51°30' W 002°42'0 0.0
2014-Jul-21 10:29N 51°30' W 002°42'0 0.0
2014-Jul-21 09:32N 51°30' W 002°42'0 0.0
2014-Jul-21 08:29N 51°30' W 002°42'0 0.0
2014-Jul-21 07:32N 51°30' W 002°42'0 0.0
2014-Jul-21 06:32N 51°30' W 002°42'0 0.0
2014-Jul-21 05:32N 51°30' W 002°42'0 0.0
2014-Jul-21 04:32N 51°30' W 002°42'0 0.0
2014-Jul-21 03:32N 51°30' W 002°42'0 0.0
2014-Jul-21 02:32N 51°30' W 002°42'0 0.0
2014-Jul-21 01:32N 51°30' W 002°42'0 0.0
2014-Jul-21 00:29N 51°30' W 002°42'0 0.0
2014-Jul-20 23:32N 51°30' W 002°42'0 0.0
2014-Jul-20 22:32N 51°30' W 002°42'0 0.0
2014-Jul-20 21:32N 51°30' W 002°42'0 0.0
2014-Jul-20 20:32N 51°30' W 002°42'0 0.0
2014-Jul-20 19:32N 51°30' W 002°42'0 0.0
2014-Jul-20 18:32N 51°30' W 002°42'0 0.0
2014-Jul-20 17:32N 51°30' W 002°42'0 0.0
2014-Jul-20 16:32N 51°30' W 002°42'0 0.0
2014-Jul-20 15:32N 51°30' W 002°42'0 0.0
2014-Jul-20 14:32N 51°30' W 002°42'0 0.3
2014-Jul-20 13:33N 51°30' W 002°43'1 1.0
2014-Jul-20 12:34N 51°30' W 002°44'1313.5
2014-Jul-20 11:34N 51°24' W 003°03'10 9.6
2014-Jul-20 10:33N 51°20' W 003°18'2 1.7
2014-Jul-20 09:25N 51°19' W 003°20'0 0.0
2014-Jul-20 08:25N 51°19' W 003°20'0 0.0
2014-Jul-20 07:10N 51°19' W 003°20'1 1.8
2014-Jul-20 06:27N 51°20' W 003°22'97 8.2
2014-Jul-19 18:33N 52°14' W 005°32'9111.3
2014-Jul-19 10:30N 53°44' W 005°54'1212.4
2014-Jul-19 09:33N 53°55' W 005°60'1010.5
2014-Jul-19 08:33N 54°04' W 006°10'2 0.1
2014-Jul-18 04:13N 54°02' W 006°08'6 8.7
2014-Jul-18 03:33N 53°58' W 006°01'1312.6
2014-Jul-18 02:31N 53°46' W 005°54'9912.0
2014-Jul-17 18:14N 52°08' W 005°32'710.8
2014-Jul-17 17:34N 52°00' W 005°31'8611.9
2014-Jul-17 10:20N 51°22' W 003°27'912.2
2014-Jul-17 09:33N 51°23' W 003°12'1111.1
2014-Jul-17 08:32N 51°27' W 002°54'8 8.2
2014-Jul-17 07:34N 51°30' W 002°43'0 0.3
2014-Jul-17 06:31N 51°30' W 002°42'0 0.0
2014-Jul-17 05:31N 51°30' W 002°42'0 0.0
2014-Jul-17 04:31N 51°30' W 002°42'0 0.0
2014-Jul-17 03:28N 51°30' W 002°42'0 0.0
2014-Jul-17 02:31N 51°30' W 002°42'0 0.0
2014-Jul-17 01:31N 51°30' W 002°42'0 0.0
2014-Jul-17 00:33N 51°30' W 002°42'0 0.0
2014-Jul-16 23:31N 51°30' W 002°42'0 0.0
2014-Jul-16 22:31N 51°30' W 002°42'0 0.0
2014-Jul-16 21:34N 51°30' W 002°42'0 0.0
2014-Jul-16 20:30N 51°30' W 002°42'0 0.4
2014-Jul-16 19:33N 51°30' W 002°43'4 3.5
2014-Jul-16 18:33N 51°29' W 002°48'1616.1
2014-Jul-16 17:33N 51°21' W 003°11'170 8.1
2014-Jul-15 20:33N 53°41' W 005°53'1111.3
2014-Jul-15 19:33N 53°51' W 005°58'1211.5
2014-Jul-15 18:33N 54°02' W 006°07'4 0.6
2014-Jul-15 12:26N 54°04' W 006°12'4 4.1
2014-Jul-15 11:33N 54°02' W 006°07'0 0.0
2014-Jul-15 10:24N 54°02' W 006°07'0 0.1
2014-Jul-15 09:33N 54°02' W 006°07'0 0.1
2014-Jul-15 08:33N 54°02' W 006°07'0 0.0
2014-Jul-15 07:24N 54°02' W 006°07'  
Track history (hours):
 
Tides and Currents Weather Stations Pressure Air Temp Water Temp Dewpoint Dewpoint Depression Visibility Wind Speed Wind Dir Waves Ship Positions

Vanquish

Last reported at 2014-Jul-25 06:33 UTC. Time now 2014-Jul-25 06:51 UTC.
Position N 51°30' W 002°42'.

MMSI: 246138952.

Date/timePositionNaut miles runAvg speedWind from/ knotsBaromVisibWave heightAir tempDewpointWater temp
2014-Jul-25 06:33N 51°30' W 002°42'0 0.0
2014-Jul-25 05:33N 51°30' W 002°42'0 0.0
2014-Jul-25 04:34N 51°30' W 002°42'0 0.0
2014-Jul-25 03:31N 51°30' W 002°42'0 0.0
2014-Jul-25 02:34N 51°30' W 002°42'0 0.0
2014-Jul-25 01:34N 51°30' W 002°42'0 0.0
2014-Jul-25 00:31N 51°30' W 002°42'0 0.0
2014-Jul-24 23:33N 51°30' W 002°42'0 0.0
2014-Jul-24 22:33N 51°30' W 002°42'0 0.0
2014-Jul-24 21:33N 51°30' W 002°42'0 0.0
2014-Jul-24 20:34N 51°30' W 002°42'0 0.0
2014-Jul-24 19:33N 51°30' W 002°42'0 0.0
2014-Jul-24 18:34N 51°30' W 002°42'0 0.4
2014-Jul-24 17:34N 51°30' W 002°43'4 4.2
2014-Jul-24 16:34N 51°29' W 002°49'1514.6
2014-Jul-24 15:34N 51°22' W 003°09'10 9.5
2014-Jul-24 14:33N 51°21' W 003°25'1 1.2
2014-Jul-24 13:33N 51°20' W 003°26'91 9.0
2014-Jul-24 03:32N 52°08' W 005°31'1212.2
2014-Jul-24 02:33N 52°20' W 005°32'1513.5
2014-Jul-24 01:28N 52°34' W 005°33'5713.9
2014-Jul-23 21:23N 53°30' W 005°47'1112.8
2014-Jul-23 20:33N 53°41' W 005°53'1312.8
2014-Jul-23 19:33N 53°53' W 005°58'1111.1
2014-Jul-23 18:33N 54°02' W 006°08'3 0.1
2014-Jul-22 20:31N 54°04' W 006°12'8 7.6
2014-Jul-22 19:28N 53°59' W 006°02'4 4.4
2014-Jul-22 18:33N 53°55' W 005°59'4213.9
2014-Jul-22 15:32N 53°14' W 005°39'13910.6
2014-Jul-22 02:27N 51°21' W 003°27'1011.1
2014-Jul-22 01:33N 51°23' W 003°11'1211.9
2014-Jul-22 00:33N 51°27' W 002°53'7 7.1
2014-Jul-21 23:33N 51°30' W 002°43'0 0.3
2014-Jul-21 22:32N 51°30' W 002°42'0 0.0
2014-Jul-21 21:32N 51°30' W 002°42'0 0.0
2014-Jul-21 20:32N 51°30' W 002°42'0 0.0
2014-Jul-21 20:17N 51°30' W 002°42'0 0.0
2014-Jul-21 19:32N 51°30' W 002°42'0 0.0
2014-Jul-21 18:32N 51°30' W 002°42'0 0.0
2014-Jul-21 17:32N 51°30' W 002°42'0 0.0
2014-Jul-21 16:32N 51°30' W 002°42'0 0.0
2014-Jul-21 15:32N 51°30' W 002°42'0 0.0
2014-Jul-21 14:32N 51°30' W 002°42'0 0.0
2014-Jul-21 13:32N 51°30' W 002°42'0 0.0
2014-Jul-21 12:32N 51°30' W 002°42'0 0.0
2014-Jul-21 11:32N 51°30' W 002°42'0 0.0
2014-Jul-21 10:29N 51°30' W 002°42'0 0.0
2014-Jul-21 09:32N 51°30' W 002°42'0 0.0
2014-Jul-21 08:29N 51°30' W 002°42'0 0.0
2014-Jul-21 07:32N 51°30' W 002°42'0 0.0
2014-Jul-21 06:32N 51°30' W 002°42'0 0.0
2014-Jul-21 05:32N 51°30' W 002°42'0 0.0
2014-Jul-21 04:32N 51°30' W 002°42'0 0.0
2014-Jul-21 03:32N 51°30' W 002°42'0 0.0
2014-Jul-21 02:32N 51°30' W 002°42'0 0.0
2014-Jul-21 01:32N 51°30' W 002°42'0 0.0
2014-Jul-21 00:29N 51°30' W 002°42'0 0.0
2014-Jul-20 23:32N 51°30' W 002°42'0 0.0
2014-Jul-20 22:32N 51°30' W 002°42'0 0.0
2014-Jul-20 21:32N 51°30' W 002°42'0 0.0
2014-Jul-20 20:32N 51°30' W 002°42'0 0.0
2014-Jul-20 19:32N 51°30' W 002°42'0 0.0
2014-Jul-20 18:32N 51°30' W 002°42'0 0.0
2014-Jul-20 17:32N 51°30' W 002°42'0 0.0
2014-Jul-20 16:32N 51°30' W 002°42'0 0.0
2014-Jul-20 15:32N 51°30' W 002°42'0 0.0
2014-Jul-20 14:32N 51°30' W 002°42'0 0.3
2014-Jul-20 13:33N 51°30' W 002°43'1 1.0
2014-Jul-20 12:34N 51°30' W 002°44'1313.5
2014-Jul-20 11:34N 51°24' W 003°03'10 9.6
2014-Jul-20 10:33N 51°20' W 003°18'2 1.7
2014-Jul-20 09:25N 51°19' W 003°20'0 0.0
2014-Jul-20 08:25N 51°19' W 003°20'0 0.0
2014-Jul-20 07:10N 51°19' W 003°20'1 1.8
2014-Jul-20 06:27N 51°20' W 003°22'97 8.2
2014-Jul-19 18:33N 52°14' W 005°32'9111.3
2014-Jul-19 10:30N 53°44' W 005°54'1212.4
2014-Jul-19 09:33N 53°55' W 005°60'1010.5
2014-Jul-19 08:33N 54°04' W 006°10'2 0.1
2014-Jul-18 04:13N 54°02' W 006°08'6 8.7
2014-Jul-18 03:33N 53°58' W 006°01'1312.6
2014-Jul-18 02:31N 53°46' W 005°54'9912.0
2014-Jul-17 18:14N 52°08' W 005°32'710.8
2014-Jul-17 17:34N 52°00' W 005°31'8611.9
2014-Jul-17 10:20N 51°22' W 003°27'912.2
2014-Jul-17 09:33N 51°23' W 003°12'1111.1
2014-Jul-17 08:32N 51°27' W 002°54'8 8.2
2014-Jul-17 07:34N 51°30' W 002°43'0 0.3
2014-Jul-17 06:31N 51°30' W 002°42'0 0.0
2014-Jul-17 05:31N 51°30' W 002°42'0 0.0
2014-Jul-17 04:31N 51°30' W 002°42'0 0.0
2014-Jul-17 03:28N 51°30' W 002°42'0 0.0
2014-Jul-17 02:31N 51°30' W 002°42'0 0.0
2014-Jul-17 01:31N 51°30' W 002°42'0 0.0
2014-Jul-17 00:33N 51°30' W 002°42'0 0.0
2014-Jul-16 23:31N 51°30' W 002°42'0 0.0
2014-Jul-16 22:31N 51°30' W 002°42'0 0.0
2014-Jul-16 21:34N 51°30' W 002°42'0 0.0
2014-Jul-16 20:30N 51°30' W 002°42'0 0.4
2014-Jul-16 19:33N 51°30' W 002°43'4 3.5
2014-Jul-16 18:33N 51°29' W 002°48'1616.1
2014-Jul-16 17:33N 51°21' W 003°11'170 8.1
2014-Jul-15 20:33N 53°41' W 005°53'1111.3
2014-Jul-15 19:33N 53°51' W 005°58'1211.5
2014-Jul-15 18:33N 54°02' W 006°07'4 0.6
2014-Jul-15 12:26N 54°04' W 006°12'4 4.1
2014-Jul-15 11:33N 54°02' W 006°07'0 0.0
2014-Jul-15 10:24N 54°02' W 006°07'0 0.1
2014-Jul-15 09:33N 54°02' W 006°07'0 0.1
2014-Jul-15 08:33N 54°02' W 006°07'0 0.0
2014-Jul-15 07:24N 54°02' W 006°07'  

Dump ship's entire track history